^^
Station Historical Data
Daily Summary for December 13, 2017 Units:  Both    English   Metric
« Previous Day
Next Day »
Daily Weekly Monthly Yearly Custom
  High: Low: Average:
Temperature: TemperatureF °F /  -17.8 °C 66.6 °F /  19.2 °C 77.5 °F /  25.3 °C
Dew Point: DewpointF °F /  -17.8 °C 12.0 °F /  -11.1 °C 29 °F /  -1.7 °C
Humidity: Humidity% 6% 20%
Wind Speed: WindSpeedMPHmph /  0km/h - 1.7mph /  2.7km/h
Wind Gust: WindSpeedGustMPHmph /  0km/h - -
Wind- - SW
Pressure: PressureIn in /  0 hPa 29.60 in /  1002.3 hPa -
Precipitation: 0.00 in /  0 mm    
Historical Graphs
 
 
Tabular Data for December 13, 2017
Time Temperature Dew Point Pressure Wind Wind Speed Wind Gust Humidity Rainfall Rate (Hourly) solar Conditions
TemperatureF °F /  -17.8 °C DewpointF °F /  -17.8 °C PressureInin /  0hPa Calm     Humidity% HourlyPrecipInin /  0mm SolarRadiationWatts/m^2 W/m2 Conditions
00:01 71.1 °F /  21.7 °C 41.4 °F /  5.2 °C 30.13in /  1020.2hPa Calm     34% 0.00in /  0mm 0.0 W/m2
00:07 70.9 °F /  21.6 °C 41.2 °F /  5.1 °C 30.13in /  1020.2hPa Calm     34% 0.00in /  0mm 0.0 W/m2
00:12 70.9 °F /  21.6 °C 41.2 °F /  5.1 °C 30.13in /  1020.2hPa Calm     34% 0.00in /  0mm 0.0 W/m2
00:17 70.7 °F /  21.5 °C 41.0 °F /  5 °C 30.13in /  1020.2hPa Calm     34% 0.00in /  0mm 0.0 W/m2
00:22 70.5 °F /  21.4 °C 40.8 °F /  4.9 °C 30.13in /  1020.2hPa Calm     34% 0.00in /  0mm 0.0 W/m2
00:27 70.5 °F /  21.4 °C 40.8 °F /  4.9 °C 30.12in /  1019.9hPa Calm     34% 0.00in /  0mm 0.0 W/m2
00:32 70.3 °F /  21.3 °C 40.6 °F /  4.8 °C 30.12in /  1019.9hPa Calm   1.0mph /  1.6km/h 34% 0.00in /  0mm 0.0 W/m2
00:45 70.0 °F /  21.1 °C 41.0 °F /  5 °C 30.12in /  1019.9hPa Calm   1.0mph /  1.6km/h 35% 0.00in /  0mm 0.0 W/m2
00:50 70.0 °F /  21.1 °C 41.7 °F /  5.4 °C 30.12in /  1019.9hPa Calm     36% 0.00in /  0mm 0.0 W/m2
00:55 69.6 °F /  20.9 °C 42.3 °F /  5.7 °C 30.12in /  1019.9hPa Calm     37% 0.00in /  0mm 0.0 W/m2
01:00 69.4 °F /  20.8 °C 42.1 °F /  5.6 °C 30.12in /  1019.9hPa Calm   1.0mph /  1.6km/h 37% 0.00in /  0mm 0.0 W/m2
01:05 69.3 °F /  20.7 °C 41.9 °F /  5.5 °C 30.11in /  1019.5hPa Calm     37% 0.00in /  0mm 0.0 W/m2
01:10 69.3 °F /  20.7 °C 41.9 °F /  5.5 °C 30.11in /  1019.5hPa Calm     37% 0.00in /  0mm 0.0 W/m2
01:21 68.7 °F /  20.4 °C 42.1 °F /  5.6 °C 30.11in /  1019.5hPa Calm     38% 0.00in /  0mm 0.0 W/m2
01:26 68.5 °F /  20.3 °C 41.9 °F /  5.5 °C 30.11in /  1019.5hPa Calm     38% 0.00in /  0mm 0.0 W/m2
01:32 68.4 °F /  20.2 °C 42.4 °F /  5.8 °C 30.11in /  1019.5hPa Calm     39% 0.00in /  0mm 0.0 W/m2
01:37 68.4 °F /  20.2 °C 42.4 °F /  5.8 °C 30.10in /  1019.2hPa Calm   1.0mph /  1.6km/h 39% 0.00in /  0mm 0.0 W/m2
01:42 68.2 °F /  20.1 °C 42.3 °F /  5.7 °C 30.10in /  1019.2hPa Calm     39% 0.00in /  0mm 0.0 W/m2
01:47 68.0 °F /  20 °C 42.1 °F /  5.6 °C 30.10in /  1019.2hPa Calm   1.0mph /  1.6km/h 39% 0.00in /  0mm 0.0 W/m2
01:52 67.8 °F /  19.9 °C 41.4 °F /  5.2 °C 30.10in /  1019.2hPa Calm   1.0mph /  1.6km/h 38% 0.00in /  0mm 0.0 W/m2
01:57 67.8 °F /  19.9 °C 41.4 °F /  5.2 °C 30.09in /  1018.8hPa Calm     38% 0.00in /  0mm 0.0 W/m2
02:02 67.8 °F /  19.9 °C 41.4 °F /  5.2 °C 30.09in /  1018.8hPa Calm   2.0mph /  3.2km/h 38% 0.00in /  0mm 0.0 W/m2
02:08 67.8 °F /  19.9 °C 41.9 °F /  5.5 °C 30.09in /  1018.8hPa Calm     39% 0.00in /  0mm 0.0 W/m2
02:14 67.8 °F /  19.9 °C 42.6 °F /  5.9 °C 30.09in /  1018.8hPa East 0.9mph /  1.4km/h 1.0mph /  1.6km/h 40% 0.00in /  0mm 0.0 W/m2
02:19 67.8 °F /  19.9 °C 42.6 °F /  5.9 °C 30.09in /  1018.8hPa Calm   1.0mph /  1.6km/h 40% 0.00in /  0mm 0.0 W/m2
02:24 67.6 °F /  19.8 °C 42.4 °F /  5.8 °C 30.09in /  1018.8hPa Calm   1.0mph /  1.6km/h 40% 0.00in /  0mm 0.0 W/m2
02:29 67.5 °F /  19.7 °C 42.3 °F /  5.7 °C 30.09in /  1018.8hPa Calm     40% 0.00in /  0mm 0.0 W/m2
02:34 67.5 °F /  19.7 °C 42.3 °F /  5.7 °C 30.09in /  1018.8hPa Calm   1.0mph /  1.6km/h 40% 0.00in /  0mm 0.0 W/m2
02:39 67.3 °F /  19.6 °C 42.1 °F /  5.6 °C 30.09in /  1018.8hPa Calm   1.0mph /  1.6km/h 40% 0.00in /  0mm 0.0 W/m2
02:44 67.3 °F /  19.6 °C 42.1 °F /  5.6 °C 30.09in /  1018.8hPa Calm   1.0mph /  1.6km/h 40% 0.00in /  0mm 0.0 W/m2
02:49 67.1 °F /  19.5 °C 41.9 °F /  5.5 °C 29.62in /  1002.9hPa Calm     40% 0.00in /  0mm 0.0 W/m2
02:54 67.1 °F /  19.5 °C 42.6 °F /  5.9 °C 29.61in /  1002.6hPa Calm     41% 0.00in /  0mm 0.0 W/m2
03:05 66.9 °F /  19.4 °C 40.5 °F /  4.7 °C 29.62in /  1002.9hPa Calm   7.0mph /  11.3km/h 38% 0.00in /  0mm 0.0 W/m2
03:11 67.5 °F /  19.7 °C 38.8 °F /  3.8 °C 29.62in /  1002.9hPa SSE 0.9mph /  1.4km/h 4.0mph /  6.4km/h 35% 0.00in /  0mm 0.0 W/m2
03:16 68.0 °F /  20 °C 38.7 °F /  3.7 °C 29.62in /  1002.9hPa ESE 0.9mph /  1.4km/h 3.0mph /  4.8km/h 34% 0.00in /  0mm 0.0 W/m2
03:21 68.5 °F /  20.3 °C 39.0 °F /  3.9 °C 29.62in /  1002.9hPa SSW 4.0mph /  6.4km/h 6.0mph /  9.7km/h 34% 0.00in /  0mm 0.0 W/m2
03:26 69.1 °F /  20.6 °C 39.6 °F /  4.2 °C 29.62in /  1002.9hPa SW 4.9mph /  7.9km/h 6.0mph /  9.7km/h 34% 0.00in /  0mm 0.0 W/m2
03:31 69.3 °F /  20.7 °C 40.5 °F /  4.7 °C 29.61in /  1002.6hPa Calm   5.0mph /  8km/h 35% 0.00in /  0mm 0.0 W/m2
03:36 69.4 °F /  20.8 °C 40.6 °F /  4.8 °C 29.61in /  1002.6hPa SW 0.9mph /  1.4km/h 3.0mph /  4.8km/h 35% 0.00in /  0mm 0.0 W/m2
03:41 69.4 °F /  20.8 °C 39.9 °F /  4.4 °C 29.61in /  1002.6hPa SSE 2.0mph /  3.2km/h 8.0mph /  12.9km/h 34% 0.00in /  0mm 0.0 W/m2
03:46 69.4 °F /  20.8 °C 39.9 °F /  4.4 °C 29.62in /  1002.9hPa Calm   7.0mph /  11.3km/h 34% 0.00in /  0mm 0.0 W/m2
03:52 69.4 °F /  20.8 °C 39.9 °F /  4.4 °C 29.62in /  1002.9hPa ESE 4.0mph /  6.4km/h 6.0mph /  9.7km/h 34% 0.00in /  0mm 0.0 W/m2
03:57 69.4 °F /  20.8 °C 39.9 °F /  4.4 °C 29.62in /  1002.9hPa Calm   6.0mph /  9.7km/h 34% 0.00in /  0mm 0.0 W/m2
04:02 69.4 °F /  20.8 °C 39.9 °F /  4.4 °C 29.62in /  1002.9hPa SSW 2.9mph /  4.7km/h 8.0mph /  12.9km/h 34% 0.00in /  0mm 0.0 W/m2
04:07 69.4 °F /  20.8 °C 39.9 °F /  4.4 °C 29.62in /  1002.9hPa SSE 2.9mph /  4.7km/h 8.0mph /  12.9km/h 34% 0.00in /  0mm 0.0 W/m2
04:12 69.4 °F /  20.8 °C 39.0 °F /  3.9 °C 29.62in /  1002.9hPa SSE 4.0mph /  6.4km/h 8.0mph /  12.9km/h 33% 0.00in /  0mm 0.0 W/m2
04:17 69.4 °F /  20.8 °C 39.0 °F /  3.9 °C 29.62in /  1002.9hPa South 0.9mph /  1.4km/h 8.0mph /  12.9km/h 33% 0.00in /  0mm 0.0 W/m2
04:22 69.4 °F /  20.8 °C 39.0 °F /  3.9 °C 29.62in /  1002.9hPa Calm   4.0mph /  6.4km/h 33% 0.00in /  0mm 0.0 W/m2
04:28 69.3 °F /  20.7 °C 38.8 °F /  3.8 °C 29.62in /  1002.9hPa Calm   3.0mph /  4.8km/h 33% 0.00in /  0mm 0.0 W/m2
04:33 69.3 °F /  20.7 °C 38.1 °F /  3.4 °C 29.62in /  1002.9hPa WSW 2.0mph /  3.2km/h 5.0mph /  8km/h 32% 0.00in /  0mm 0.0 W/m2
04:38 69.3 °F /  20.7 °C 38.1 °F /  3.4 °C 29.62in /  1002.9hPa Calm   3.0mph /  4.8km/h 32% 0.00in /  0mm 0.0 W/m2
04:43 69.1 °F /  20.6 °C 37.9 °F /  3.3 °C 29.62in /  1002.9hPa South 0.9mph /  1.4km/h 3.0mph /  4.8km/h 32% 0.00in /  0mm 0.0 W/m2
04:48 68.9 °F /  20.5 °C 37.8 °F /  3.2 °C 29.62in /  1002.9hPa Calm   2.0mph /  3.2km/h 32% 0.00in /  0mm 0.0 W/m2
04:53 68.7 °F /  20.4 °C 37.6 °F /  3.1 °C 29.62in /  1002.9hPa Calm   3.0mph /  4.8km/h 32% 0.00in /  0mm 0.0 W/m2
04:58 68.5 °F /  20.3 °C 37.6 °F /  3.1 °C 29.62in /  1002.9hPa SSE 0.9mph /  1.4km/h 2.0mph /  3.2km/h 32% 0.00in /  0mm 0.0 W/m2
05:03 68.5 °F /  20.3 °C 37.6 °F /  3.1 °C 29.62in /  1002.9hPa SSW 0.9mph /  1.4km/h 3.0mph /  4.8km/h 32% 0.00in /  0mm 0.0 W/m2
05:08 68.4 °F /  20.2 °C 36.5 °F /  2.5 °C 29.62in /  1002.9hPa Calm   1.0mph /  1.6km/h 31% 0.00in /  0mm 0.0 W/m2
05:14 68.2 °F /  20.1 °C 36.3 °F /  2.4 °C 29.62in /  1002.9hPa Calm   1.0mph /  1.6km/h 31% 0.00in /  0mm 0.0 W/m2
05:18 67.8 °F /  19.9 °C 36.1 °F /  2.3 °C 29.62in /  1002.9hPa Calm   2.0mph /  3.2km/h 31% 0.00in /  0mm 0.0 W/m2
05:23 67.6 °F /  19.8 °C 34.2 °F /  1.2 °C 29.62in /  1002.9hPa Calm   3.0mph /  4.8km/h 29% 0.00in /  0mm 0.0 W/m2
05:28 67.6 °F /  19.8 °C 33.4 °F /  0.8 °C 29.62in /  1002.9hPa Calm   5.0mph /  8km/h 28% 0.00in /  0mm 0.0 W/m2
05:33 67.6 °F /  19.8 °C 33.4 °F /  0.8 °C 29.62in /  1002.9hPa SW 2.0mph /  3.2km/h 7.0mph /  11.3km/h 28% 0.00in /  0mm 0.0 W/m2
05:38 67.8 °F /  19.9 °C 32.5 °F /  0.3 °C 29.63in /  1003.3hPa West 0.9mph /  1.4km/h 5.0mph /  8km/h 27% 0.00in /  0mm 0.0 W/m2
05:43 67.8 °F /  19.9 °C 33.4 °F /  0.8 °C 29.63in /  1003.3hPa SSE 2.9mph /  4.7km/h 3.0mph /  4.8km/h 28% 0.00in /  0mm 0.0 W/m2
05:44 67.8 °F /  19.9 °C 33.4 °F /  0.8 °C 29.62in /  1002.9hPa ESE 4.0mph /  6.4km/h 4.0mph /  6.4km/h 28% 0.00in /  0mm 0.0 W/m2
05:49 67.8 °F /  19.9 °C 33.4 °F /  0.8 °C 29.63in /  1003.3hPa Calm   5.0mph /  8km/h 28% 0.00in /  0mm 0.0 W/m2
06:00 67.8 °F /  19.9 °C 32.5 °F /  0.3 °C 29.63in /  1003.3hPa Calm   3.0mph /  4.8km/h 27% 0.00in /  0mm 0.0 W/m2
06:05 67.8 °F /  19.9 °C 32.5 °F /  0.3 °C 29.63in /  1003.3hPa SE 0.9mph /  1.4km/h 3.0mph /  4.8km/h 27% 0.00in /  0mm 0.0 W/m2
06:10 67.6 °F /  19.8 °C 33.4 °F /  0.8 °C 29.64in /  1003.6hPa Calm   1.0mph /  1.6km/h 28% 0.00in /  0mm 7.0 W/m2
06:15 67.5 °F /  19.7 °C 33.3 °F /  0.7 °C 29.64in /  1003.6hPa Calm   1.0mph /  1.6km/h 28% 0.00in /  0mm 9.0 W/m2
06:20 67.3 °F /  19.6 °C 33.1 °F /  0.6 °C 29.64in /  1003.6hPa SSW 2.0mph /  3.2km/h 2.0mph /  3.2km/h 28% 0.00in /  0mm 11.0 W/m2
06:25 66.9 °F /  19.4 °C 32.7 °F /  0.4 °C 29.64in /  1003.6hPa Calm   2.0mph /  3.2km/h 28% 0.00in /  0mm 12.0 W/m2
06:30 66.7 °F /  19.3 °C 32.5 °F /  0.3 °C 29.64in /  1003.6hPa South 0.9mph /  1.4km/h 3.0mph /  4.8km/h 28% 0.00in /  0mm 14.0 W/m2
06:36 66.7 °F /  19.3 °C 33.4 °F /  0.8 °C 29.64in /  1003.6hPa SW 4.0mph /  6.4km/h 4.0mph /  6.4km/h 29% 0.00in /  0mm 16.0 W/m2
06:41 66.7 °F /  19.3 °C 33.4 °F /  0.8 °C 29.65in /  1003.9hPa Calm   1.0mph /  1.6km/h 29% 0.00in /  0mm 18.0 W/m2
06:46 66.7 °F /  19.3 °C 33.4 °F /  0.8 °C 29.65in /  1003.9hPa Calm   2.0mph /  3.2km/h 29% 0.00in /  0mm 19.0 W/m2
06:51 66.7 °F /  19.3 °C 33.4 °F /  0.8 °C 29.65in /  1003.9hPa Calm   2.0mph /  3.2km/h 29% 0.00in /  0mm 21.0 W/m2
06:57 66.6 °F /  19.2 °C 34.2 °F /  1.2 °C 29.65in /  1003.9hPa NNE 0.9mph /  1.4km/h 3.0mph /  4.8km/h 30% 0.00in /  0mm 23.0 W/m2
07:02 66.6 °F /  19.2 °C 33.3 °F /  0.7 °C 29.66in /  1004.3hPa NNW 0.9mph /  1.4km/h 3.0mph /  4.8km/h 29% 0.00in /  0mm 26.0 W/m2
07:07 66.6 °F /  19.2 °C 34.2 °F /  1.2 °C 29.66in /  1004.3hPa NW 0.9mph /  1.4km/h 3.0mph /  4.8km/h 30% 0.00in /  0mm 26.0 W/m2
07:12 66.9 °F /  19.4 °C 36.1 °F /  2.3 °C 29.67in /  1004.6hPa NW 2.0mph /  3.2km/h 3.0mph /  4.8km/h 32% 0.00in /  0mm 28.0 W/m2
07:17 67.3 °F /  19.6 °C 36.5 °F /  2.5 °C 29.67in /  1004.6hPa NNW 0.9mph /  1.4km/h 3.0mph /  4.8km/h 32% 0.00in /  0mm 28.0 W/m2
07:23 67.5 °F /  19.7 °C 35.8 °F /  2.1 °C 29.67in /  1004.6hPa North 0.9mph /  1.4km/h 4.0mph /  6.4km/h 31% 0.00in /  0mm 28.0 W/m2
07:27 68.2 °F /  20.1 °C 37.2 °F /  2.9 °C 29.68in /  1005hPa North 2.0mph /  3.2km/h 3.0mph /  4.8km/h 32% 0.00in /  0mm 30.0 W/m2
07:33 68.5 °F /  20.3 °C 38.3 °F /  3.5 °C 29.68in /  1005hPa Calm   4.0mph /  6.4km/h 33% 0.00in /  0mm 44.0 W/m2
07:38 68.7 °F /  20.4 °C 36.9 °F /  2.7 °C 29.68in /  1005hPa NNW 2.0mph /  3.2km/h 4.0mph /  6.4km/h 31% 0.00in /  0mm 128.0 W/m2
07:48 70.3 °F /  21.3 °C 37.4 °F /  3 °C 29.68in /  1005hPa NW 2.9mph /  4.7km/h 4.0mph /  6.4km/h 30% 0.00in /  0mm 387.0 W/m2
07:53 71.4 °F /  21.9 °C 37.6 °F /  3.1 °C 29.68in /  1005hPa NNW 0.9mph /  1.4km/h 3.0mph /  4.8km/h 29% 0.00in /  0mm 404.0 W/m2
08:04 73.0 °F /  22.8 °C 38.8 °F /  3.8 °C 29.68in /  1005hPa Calm   2.0mph /  3.2km/h 29% 0.00in /  0mm 452.0 W/m2
08:09 73.8 °F /  23.2 °C 39.6 °F /  4.2 °C 29.69in /  1005.3hPa Calm   6.0mph /  9.7km/h 29% 0.00in /  0mm 471.0 W/m2
08:14 74.5 °F /  23.6 °C 39.2 °F /  4 °C 29.69in /  1005.3hPa Calm   2.0mph /  3.2km/h 28% 0.00in /  0mm 492.0 W/m2
08:20 75.0 °F /  23.9 °C 38.8 °F /  3.8 °C 29.69in /  1005.3hPa Calm   2.0mph /  3.2km/h 27% 0.00in /  0mm 508.0 W/m2
08:25 75.2 °F /  24 °C 37.9 °F /  3.3 °C 29.69in /  1005.3hPa Calm   1.0mph /  1.6km/h 26% 0.00in /  0mm 531.0 W/m2
08:30 75.6 °F /  24.2 °C 36.3 °F /  2.4 °C 29.69in /  1005.3hPa Calm   2.0mph /  3.2km/h 24% 0.00in /  0mm 552.0 W/m2
08:35 76.1 °F /  24.5 °C 36.7 °F /  2.6 °C 29.69in /  1005.3hPa North 0.9mph /  1.4km/h 2.0mph /  3.2km/h 24% 0.00in /  0mm 570.0 W/m2
08:40 76.6 °F /  24.8 °C 33.8 °F /  1 °C 29.69in /  1005.3hPa NNW 0.9mph /  1.4km/h 2.0mph /  3.2km/h 21% 0.00in /  0mm 587.0 W/m2
08:45 76.8 °F /  24.9 °C 34.0 °F /  1.1 °C 29.69in /  1005.3hPa SSW 0.9mph /  1.4km/h 1.0mph /  1.6km/h 21% 0.00in /  0mm 605.0 W/m2
08:50 76.8 °F /  24.9 °C 34.0 °F /  1.1 °C 29.69in /  1005.3hPa WSW 4.0mph /  6.4km/h 4.0mph /  6.4km/h 21% 0.00in /  0mm 624.0 W/m2
08:55 76.6 °F /  24.8 °C 33.8 °F /  1 °C 29.69in /  1005.3hPa Calm   2.0mph /  3.2km/h 21% 0.00in /  0mm 642.0 W/m2
09:00 77.2 °F /  25.1 °C 33.1 °F /  0.6 °C 29.70in /  1005.6hPa NNW 2.0mph /  3.2km/h 3.0mph /  4.8km/h 20% 0.00in /  0mm 661.0 W/m2
09:05 77.7 °F /  25.4 °C 34.7 °F /  1.5 °C 29.69in /  1005.3hPa NNW 2.9mph /  4.7km/h 6.0mph /  9.7km/h 21% 0.00in /  0mm 675.0 W/m2
09:10 78.3 °F /  25.7 °C 38.5 °F /  3.6 °C 29.69in /  1005.3hPa WSW 0.9mph /  1.4km/h 4.0mph /  6.4km/h 24% 0.00in /  0mm 689.0 W/m2
09:16 78.4 °F /  25.8 °C 36.5 °F /  2.5 °C 29.69in /  1005.3hPa Calm   4.0mph /  6.4km/h 22% 0.00in /  0mm 712.0 W/m2
09:21 78.4 °F /  25.8 °C 37.6 °F /  3.1 °C 29.70in /  1005.6hPa West 2.9mph /  4.7km/h 6.0mph /  9.7km/h 23% 0.00in /  0mm 728.0 W/m2
09:26 77.7 °F /  25.4 °C 35.8 °F /  2.1 °C 29.69in /  1005.3hPa NNW 0.9mph /  1.4km/h 3.0mph /  4.8km/h 22% 0.00in /  0mm 747.0 W/m2
09:31 77.7 °F /  25.4 °C 37.0 °F /  2.8 °C 29.69in /  1005.3hPa NW 4.0mph /  6.4km/h 4.0mph /  6.4km/h 23% 0.00in /  0mm 765.0 W/m2
09:36 78.4 °F /  25.8 °C 36.5 °F /  2.5 °C 29.69in /  1005.3hPa West 2.0mph /  3.2km/h 5.0mph /  8km/h 22% 0.00in /  0mm 782.0 W/m2
09:41 78.3 °F /  25.7 °C 31.3 °F /  -0.4 °C 29.70in /  1005.6hPa Calm   3.0mph /  4.8km/h 18% 0.00in /  0mm 798.0 W/m2
09:46 78.3 °F /  25.7 °C 32.5 °F /  0.3 °C 29.70in /  1005.6hPa NNW 2.0mph /  3.2km/h 3.0mph /  4.8km/h 19% 0.00in /  0mm 816.0 W/m2
09:51 79.0 °F /  26.1 °C 28.9 °F /  -1.7 °C 29.70in /  1005.6hPa Calm   5.0mph /  8km/h 16% 0.00in /  0mm 833.0 W/m2
09:56 79.5 °F /  26.4 °C 32.4 °F /  0.2 °C 29.69in /  1005.3hPa NNW 0.9mph /  1.4km/h 1.0mph /  1.6km/h 18% 0.00in /  0mm 847.0 W/m2
10:01 80.2 °F /  26.8 °C 31.5 °F /  -0.3 °C 29.69in /  1005.3hPa West 4.9mph /  7.9km/h 7.0mph /  11.3km/h 17% 0.00in /  0mm 858.0 W/m2
10:06 80.2 °F /  26.8 °C 31.5 °F /  -0.3 °C 29.69in /  1005.3hPa Calm   1.0mph /  1.6km/h 17% 0.00in /  0mm 872.0 W/m2
10:12 80.4 °F /  26.9 °C 30.2 °F /  -1 °C 29.70in /  1005.6hPa WNW 2.9mph /  4.7km/h 6.0mph /  9.7km/h 16% 0.00in /  0mm 889.0 W/m2
10:17 80.4 °F /  26.9 °C 30.2 °F /  -1 °C 29.69in /  1005.3hPa SSE 2.0mph /  3.2km/h 5.0mph /  8km/h 16% 0.00in /  0mm 902.0 W/m2
10:22 81.0 °F /  27.2 °C 27.3 °F /  -2.6 °C 29.69in /  1005.3hPa Calm   1.0mph /  1.6km/h 14% 0.00in /  0mm 918.0 W/m2
10:27 81.7 °F /  27.6 °C 29.5 °F /  -1.4 °C 29.69in /  1005.3hPa Calm   2.0mph /  3.2km/h 15% 0.00in /  0mm 932.0 W/m2
10:32 82.0 °F /  27.8 °C 26.4 °F /  -3.1 °C 29.70in /  1005.6hPa NNE 4.0mph /  6.4km/h 4.0mph /  6.4km/h 13% 0.00in /  0mm 940.0 W/m2
10:37 82.0 °F /  27.8 °C 26.4 °F /  -3.1 °C 29.69in /  1005.3hPa West 0.9mph /  1.4km/h 2.0mph /  3.2km/h 13% 0.00in /  0mm 951.0 W/m2
10:43 82.8 °F /  28.2 °C 27.0 °F /  -2.8 °C 29.69in /  1005.3hPa Calm   4.0mph /  6.4km/h 13% 0.00in /  0mm 963.0 W/m2
10:48 83.5 °F /  28.6 °C 25.5 °F /  -3.6 °C 29.69in /  1005.3hPa SW 0.9mph /  1.4km/h 3.0mph /  4.8km/h 12% 0.00in /  0mm 977.0 W/m2
10:53 83.5 °F /  28.6 °C 25.5 °F /  -3.6 °C 29.69in /  1005.3hPa NNW 4.9mph /  7.9km/h 6.0mph /  9.7km/h 12% 0.00in /  0mm 998.0 W/m2
10:59 84.0 °F /  28.9 °C 23.9 °F /  -4.5 °C 29.69in /  1005.3hPa ENE 0.9mph /  1.4km/h 7.0mph /  11.3km/h 11% 0.00in /  0mm 932.0 W/m2
11:04 84.6 °F /  29.2 °C 24.3 °F /  -4.3 °C 29.69in /  1005.3hPa Calm   3.0mph /  4.8km/h 11% 0.00in /  0mm 1018.0 W/m2
11:09 84.7 °F /  29.3 °C 19.6 °F /  -6.9 °C 29.69in /  1005.3hPa WSW 4.9mph /  7.9km/h 8.0mph /  12.9km/h 9% 0.00in /  0mm 1023.0 W/m2
11:14 84.4 °F /  29.1 °C 16.7 °F /  -8.5 °C 29.69in /  1005.3hPa Calm   4.0mph /  6.4km/h 8% 0.00in /  0mm 1030.0 W/m2
11:16 84.4 °F /  29.1 °C 16.7 °F /  -8.5 °C 29.69in /  1005.3hPa West 6.0mph /  9.7km/h 8.0mph /  12.9km/h 8% 0.00in /  0mm 1035.0 W/m2
11:21 84.0 °F /  28.9 °C 16.3 °F /  -8.7 °C 29.69in /  1005.3hPa Calm   7.0mph /  11.3km/h 8% 0.00in /  0mm 1044.0 W/m2
11:26 84.4 °F /  29.1 °C 16.7 °F /  -8.5 °C 29.69in /  1005.3hPa Calm   8.0mph /  12.9km/h 8% 0.00in /  0mm 1072.0 W/m2
11:31 85.3 °F /  29.6 °C 20.1 °F /  -6.6 °C 29.69in /  1005.3hPa WSW 4.9mph /  7.9km/h 6.0mph /  9.7km/h 9% 0.00in /  0mm 1023.0 W/m2
11:36 85.8 °F /  29.9 °C 14.7 °F /  -9.6 °C 29.69in /  1005.3hPa WNW 2.0mph /  3.2km/h 5.0mph /  8km/h 7% 0.00in /  0mm 1063.0 W/m2
11:42 86.0 °F /  30 °C 14.7 °F /  -9.6 °C 29.68in /  1005hPa West 0.9mph /  1.4km/h 5.0mph /  8km/h 7% 0.00in /  0mm 1065.0 W/m2
11:47 86.0 °F /  30 °C 14.7 °F /  -9.6 °C 29.68in /  1005hPa Calm   3.0mph /  4.8km/h 7% 0.00in /  0mm 1072.0 W/m2
11:52 86.2 °F /  30.1 °C 18.0 °F /  -7.8 °C 29.68in /  1005hPa Calm   6.0mph /  9.7km/h 8% 0.00in /  0mm 1079.0 W/m2
11:57 86.9 °F /  30.5 °C 18.5 °F /  -7.5 °C 29.68in /  1005hPa West 4.0mph /  6.4km/h 5.0mph /  8km/h 8% 0.00in /  0mm 1086.0 W/m2
12:02 87.3 °F /  30.7 °C 15.6 °F /  -9.1 °C 29.68in /  1005hPa Calm   7.0mph /  11.3km/h 7% 0.00in /  0mm 1072.0 W/m2
12:07 87.4 °F /  30.8 °C 15.8 °F /  -9 °C 29.68in /  1005hPa Calm   3.0mph /  4.8km/h 7% 0.00in /  0mm 1062.0 W/m2
12:12 87.1 °F /  30.6 °C 12.0 °F /  -11.1 °C 29.68in /  1005hPa Calm   2.0mph /  3.2km/h 6% 0.00in /  0mm 1081.0 W/m2
12:17 86.7 °F /  30.4 °C 15.3 °F /  -9.3 °C 29.67in /  1004.6hPa Calm   1.0mph /  1.6km/h 7% 0.00in /  0mm 1062.0 W/m2
12:22 87.1 °F /  30.6 °C 15.6 °F /  -9.1 °C 29.67in /  1004.6hPa South 6.9mph /  11.1km/h 7.0mph /  11.3km/h 7% 0.00in /  0mm 1032.0 W/m2
12:27 87.1 °F /  30.6 °C 18.7 °F /  -7.4 °C 29.67in /  1004.6hPa NNW 2.9mph /  4.7km/h 8.0mph /  12.9km/h 8% 0.00in /  0mm 1097.0 W/m2
12:32 87.6 °F /  30.9 °C 19.0 °F /  -7.2 °C 29.67in /  1004.6hPa NW 2.9mph /  4.7km/h 5.0mph /  8km/h 8% 0.00in /  0mm 1056.0 W/m2
12:38 88.5 °F /  31.4 °C 16.7 °F /  -8.5 °C 29.67in /  1004.6hPa SSW 6.0mph /  9.7km/h 6.0mph /  9.7km/h 7% 0.00in /  0mm 1088.0 W/m2
12:43 88.5 °F /  31.4 °C 16.7 °F /  -8.5 °C 29.66in /  1004.3hPa ENE 2.9mph /  4.7km/h 7.0mph /  11.3km/h 7% 0.00in /  0mm 1053.0 W/m2
12:48 88.9 °F /  31.6 °C 16.9 °F /  -8.4 °C 29.66in /  1004.3hPa East 2.0mph /  3.2km/h 7.0mph /  11.3km/h 7% 0.00in /  0mm 1058.0 W/m2
12:53 89.1 °F /  31.7 °C 17.1 °F /  -8.3 °C 29.66in /  1004.3hPa NNE 2.9mph /  4.7km/h 8.0mph /  12.9km/h 7% 0.00in /  0mm 1037.0 W/m2
12:58 89.2 °F /  31.8 °C 20.3 °F /  -6.5 °C 29.65in /  1003.9hPa Calm   3.0mph /  4.8km/h 8% 0.00in /  0mm 1069.0 W/m2
13:03 89.6 °F /  32 °C 17.4 °F /  -8.1 °C 29.65in /  1003.9hPa WNW 4.0mph /  6.4km/h 8.0mph /  12.9km/h 7% 0.00in /  0mm 1037.0 W/m2
13:08 90.0 °F /  32.2 °C 14.2 °F /  -9.9 °C 29.65in /  1003.9hPa SSW 4.0mph /  6.4km/h 6.0mph /  9.7km/h 6% 0.00in /  0mm 1055.0 W/m2
13:13 89.8 °F /  32.1 °C 17.6 °F /  -8 °C 29.65in /  1003.9hPa West 2.9mph /  4.7km/h 7.0mph /  11.3km/h 7% 0.00in /  0mm 1074.0 W/m2
13:18 90.0 °F /  32.2 °C 17.6 °F /  -8 °C 29.65in /  1003.9hPa Calm   7.0mph /  11.3km/h 7% 0.00in /  0mm 1058.0 W/m2
13:23 90.1 °F /  32.3 °C 14.2 °F /  -9.9 °C 29.65in /  1003.9hPa NNW 2.9mph /  4.7km/h 6.0mph /  9.7km/h 6% 0.00in /  0mm 1049.0 W/m2
13:35 89.1 °F /  31.7 °C 13.5 °F /  -10.3 °C 29.65in /  1003.9hPa SW 2.0mph /  3.2km/h 5.0mph /  8km/h 6% 0.00in /  0mm 1065.0 W/m2
13:40 89.2 °F /  31.8 °C 17.1 °F /  -8.3 °C 29.65in /  1003.9hPa NW 2.9mph /  4.7km/h 10.0mph /  16.1km/h 7% 0.00in /  0mm 1069.0 W/m2
13:45 89.4 °F /  31.9 °C 17.2 °F /  -8.2 °C 29.65in /  1003.9hPa WSW 4.0mph /  6.4km/h 11.0mph /  17.7km/h 7% 0.00in /  0mm 1055.0 W/m2
13:50 88.7 °F /  31.5 °C 16.7 °F /  -8.5 °C 29.65in /  1003.9hPa WSW 2.0mph /  3.2km/h 7.0mph /  11.3km/h 7% 0.00in /  0mm 1062.0 W/m2
13:55 88.5 °F /  31.4 °C 16.7 °F /  -8.5 °C 29.64in /  1003.6hPa SSW 4.0mph /  6.4km/h 5.0mph /  8km/h 7% 0.00in /  0mm 1049.0 W/m2
14:00 89.2 °F /  31.8 °C 17.1 °F /  -8.3 °C 29.64in /  1003.6hPa SSW 0.9mph /  1.4km/h 7.0mph /  11.3km/h 7% 0.00in /  0mm 1030.0 W/m2
14:06 89.8 °F /  32.1 °C 14.0 °F /  -10 °C 29.63in /  1003.3hPa WSW 0.9mph /  1.4km/h 1.0mph /  1.6km/h 6% 0.00in /  0mm 1014.0 W/m2
14:12 89.8 °F /  32.1 °C 17.6 °F /  -8 °C 29.64in /  1003.6hPa WSW 12.1mph /  19.5km/h 14.0mph /  22.5km/h 7% 0.00in /  0mm 1013.0 W/m2
14:17 89.4 °F /  31.9 °C 20.3 °F /  -6.5 °C 29.64in /  1003.6hPa WNW 8.9mph /  14.3km/h 15.0mph /  24.1km/h 8% 0.00in /  0mm 993.0 W/m2
14:22 89.8 °F /  32.1 °C 17.6 °F /  -8 °C 29.64in /  1003.6hPa West 2.0mph /  3.2km/h 7.0mph /  11.3km/h 7% 0.00in /  0mm 990.0 W/m2
14:27 90.3 °F /  32.4 °C 18.0 °F /  -7.8 °C 29.63in /  1003.3hPa SW 0.9mph /  1.4km/h 6.0mph /  9.7km/h 7% 0.00in /  0mm 986.0 W/m2
14:32 91.0 °F /  32.8 °C 18.5 °F /  -7.5 °C 29.63in /  1003.3hPa NNW 6.0mph /  9.7km/h 15.0mph /  24.1km/h 7% 0.00in /  0mm 983.0 W/m2
14:37 91.2 °F /  32.9 °C 18.5 °F /  -7.5 °C 29.63in /  1003.3hPa West 0.9mph /  1.4km/h 3.0mph /  4.8km/h 7% 0.00in /  0mm 976.0 W/m2
14:42 91.0 °F /  32.8 °C 18.5 °F /  -7.5 °C 29.63in /  1003.3hPa SSW 2.9mph /  4.7km/h 11.0mph /  17.7km/h 7% 0.00in /  0mm 962.0 W/m2
14:48 90.9 °F /  32.7 °C 14.7 °F /  -9.6 °C 29.63in /  1003.3hPa WNW 2.9mph /  4.7km/h 3.0mph /  4.8km/h 6% 0.00in /  0mm 942.0 W/m2
14:53 90.9 °F /  32.7 °C 18.3 °F /  -7.6 °C 29.63in /  1003.3hPa West 0.9mph /  1.4km/h 5.0mph /  8km/h 7% 0.00in /  0mm 935.0 W/m2
14:59 90.3 °F /  32.4 °C 18.0 °F /  -7.8 °C 29.63in /  1003.3hPa WSW 4.0mph /  6.4km/h 10.0mph /  16.1km/h 7% 0.00in /  0mm 926.0 W/m2
15:05 90.1 °F /  32.3 °C 20.8 °F /  -6.2 °C 29.63in /  1003.3hPa WSW 4.0mph /  6.4km/h 14.0mph /  22.5km/h 8% 0.00in /  0mm 912.0 W/m2
15:10 90.3 °F /  32.4 °C 18.0 °F /  -7.8 °C 29.63in /  1003.3hPa West 6.0mph /  9.7km/h 11.0mph /  17.7km/h 7% 0.00in /  0mm 896.0 W/m2
15:15 90.3 °F /  32.4 °C 21.0 °F /  -6.1 °C 29.62in /  1002.9hPa SW 2.0mph /  3.2km/h 8.0mph /  12.9km/h 8% 0.00in /  0mm 881.0 W/m2
15:20 90.7 °F /  32.6 °C 18.1 °F /  -7.7 °C 29.62in /  1002.9hPa South 6.0mph /  9.7km/h 6.0mph /  9.7km/h 7% 0.00in /  0mm 863.0 W/m2
15:25 90.9 °F /  32.7 °C 18.3 °F /  -7.6 °C 29.62in /  1002.9hPa WSW 2.0mph /  3.2km/h 7.0mph /  11.3km/h 7% 0.00in /  0mm 849.0 W/m2
15:30 90.7 °F /  32.6 °C 18.1 °F /  -7.7 °C 29.62in /  1002.9hPa WSW 4.9mph /  7.9km/h 9.0mph /  14.5km/h 7% 0.00in /  0mm 837.0 W/m2
15:35 90.3 °F /  32.4 °C 21.0 °F /  -6.1 °C 29.62in /  1002.9hPa West 2.9mph /  4.7km/h 10.0mph /  16.1km/h 8% 0.00in /  0mm 823.0 W/m2
15:40 91.2 °F /  32.9 °C 18.5 °F /  -7.5 °C 29.61in /  1002.6hPa West 2.0mph /  3.2km/h 8.0mph /  12.9km/h 7% 0.00in /  0mm 800.0 W/m2
15:45 92.1 °F /  33.4 °C 19.2 °F /  -7.1 °C 29.61in /  1002.6hPa WSW 6.9mph /  11.1km/h 7.0mph /  11.3km/h 7% 0.00in /  0mm 788.0 W/m2
15:51 92.1 °F /  33.4 °C 19.2 °F /  -7.1 °C 29.62in /  1002.9hPa WNW 2.9mph /  4.7km/h 6.0mph /  9.7km/h 7% 0.00in /  0mm 759.0 W/m2
15:56 92.5 °F /  33.6 °C 19.6 °F /  -6.9 °C 29.61in /  1002.6hPa Calm   9.0mph /  14.5km/h 7% 0.00in /  0mm 759.0 W/m2
16:01 92.5 °F /  33.6 °C 19.6 °F /  -6.9 °C 29.62in /  1002.9hPa WNW 6.9mph /  11.1km/h 7.0mph /  11.3km/h 7% 0.00in /  0mm 738.0 W/m2
16:07 91.9 °F /  33.3 °C 19.0 °F /  -7.2 °C 29.61in /  1002.6hPa WSW 6.9mph /  11.1km/h 10.0mph /  16.1km/h 7% 0.00in /  0mm 705.0 W/m2
16:12 91.4 °F /  33 °C 21.9 °F /  -5.6 °C 29.61in /  1002.6hPa NNE 2.0mph /  3.2km/h 7.0mph /  11.3km/h 8% 0.00in /  0mm 701.0 W/m2
16:17 91.8 °F /  33.2 °C 19.0 °F /  -7.2 °C 29.61in /  1002.6hPa Calm   10.0mph /  16.1km/h 7% 0.00in /  0mm 686.0 W/m2
16:22 91.8 °F /  33.2 °C 22.1 °F /  -5.5 °C 29.61in /  1002.6hPa West 2.9mph /  4.7km/h 10.0mph /  16.1km/h 8% 0.00in /  0mm 666.0 W/m2
16:28 91.9 °F /  33.3 °C 19.0 °F /  -7.2 °C 29.61in /  1002.6hPa NW 2.0mph /  3.2km/h 9.0mph /  14.5km/h 7% 0.00in /  0mm 649.0 W/m2
16:33 91.9 °F /  33.3 °C 19.0 °F /  -7.2 °C 29.61in /  1002.6hPa North 0.9mph /  1.4km/h 5.0mph /  8km/h 7% 0.00in /  0mm 628.0 W/m2
16:39 92.1 °F /  33.4 °C 19.2 °F /  -7.1 °C 29.60in /  1002.3hPa Calm   6.0mph /  9.7km/h 7% 0.00in /  0mm 610.0 W/m2
16:45 91.9 °F /  33.3 °C 19.0 °F /  -7.2 °C 29.60in /  1002.3hPa West 4.9mph /  7.9km/h 16.0mph /  25.7km/h 7% 0.00in /  0mm 589.0 W/m2
16:50 91.0 °F /  32.8 °C 21.6 °F /  -5.8 °C 29.60in /  1002.3hPa SW 8.1mph /  13km/h 10.0mph /  16.1km/h 8% 0.00in /  0mm 571.0 W/m2
16:55 90.5 °F /  32.5 °C 18.1 °F /  -7.7 °C 29.61in /  1002.6hPa WSW 6.9mph /  11.1km/h 10.0mph /  16.1km/h 7% 0.00in /  0mm 550.0 W/m2
17:00 90.1 °F /  32.3 °C 20.8 °F /  -6.2 °C 29.61in /  1002.6hPa West 6.0mph /  9.7km/h 10.0mph /  16.1km/h 8% 0.00in /  0mm 533.0 W/m2
17:05 90.1 °F /  32.3 °C 20.8 °F /  -6.2 °C 29.61in /  1002.6hPa WNW 0.9mph /  1.4km/h 9.0mph /  14.5km/h 8% 0.00in /  0mm 512.0 W/m2
17:10 90.1 °F /  32.3 °C 20.8 °F /  -6.2 °C 29.61in /  1002.6hPa WSW 2.9mph /  4.7km/h 9.0mph /  14.5km/h 8% 0.00in /  0mm 492.0 W/m2
17:15 89.8 °F /  32.1 °C 20.7 °F /  -6.3 °C 29.61in /  1002.6hPa West 2.9mph /  4.7km/h 9.0mph /  14.5km/h 8% 0.00in /  0mm 473.0 W/m2
17:26 90.3 °F /  32.4 °C 18.0 °F /  -7.8 °C 29.61in /  1002.6hPa WNW 0.9mph /  1.4km/h 5.0mph /  8km/h 7% 0.00in /  0mm 432.0 W/m2
17:31 90.7 °F /  32.6 °C 18.1 °F /  -7.7 °C 29.61in /  1002.6hPa WNW 4.0mph /  6.4km/h 5.0mph /  8km/h 7% 0.00in /  0mm 413.0 W/m2
17:36 90.7 °F /  32.6 °C 21.4 °F /  -5.9 °C 29.61in /  1002.6hPa West 0.9mph /  1.4km/h 9.0mph /  14.5km/h 8% 0.00in /  0mm 392.0 W/m2
17:41 90.3 °F /  32.4 °C 21.0 °F /  -6.1 °C 29.61in /  1002.6hPa WNW 4.0mph /  6.4km/h 10.0mph /  16.1km/h 8% 0.00in /  0mm 371.0 W/m2
17:46 89.6 °F /  32 °C 20.5 °F /  -6.4 °C 29.61in /  1002.6hPa WSW 0.9mph /  1.4km/h 7.0mph /  11.3km/h 8% 0.00in /  0mm 350.0 W/m2
17:51 89.1 °F /  31.7 °C 20.1 °F /  -6.6 °C 29.61in /  1002.6hPa SSW 2.9mph /  4.7km/h 7.0mph /  11.3km/h 8% 0.00in /  0mm 329.0 W/m2
17:56 89.1 °F /  31.7 °C 20.1 °F /  -6.6 °C 29.61in /  1002.6hPa WSW 2.0mph /  3.2km/h 7.0mph /  11.3km/h 8% 0.00in /  0mm 306.0 W/m2
18:06 88.3 °F /  31.3 °C 22.3 °F /  -5.4 °C 29.62in /  1002.9hPa SW 6.0mph /  9.7km/h 15.0mph /  24.1km/h 9% 0.00in /  0mm 265.0 W/m2
18:12 88.2 °F /  31.2 °C 22.3 °F /  -5.4 °C 29.62in /  1002.9hPa WSW 4.9mph /  7.9km/h 9.0mph /  14.5km/h 9% 0.00in /  0mm 244.0 W/m2
18:17 88.0 °F /  31.1 °C 22.1 °F /  -5.5 °C 29.62in /  1002.9hPa WSW 4.0mph /  6.4km/h 11.0mph /  17.7km/h 9% 0.00in /  0mm 225.0 W/m2
18:22 87.6 °F /  30.9 °C 21.7 °F /  -5.7 °C 29.62in /  1002.9hPa West 11.0mph /  17.7km/h 14.0mph /  22.5km/h 9% 0.00in /  0mm 181.0 W/m2
18:27 86.5 °F /  30.3 °C 21.0 °F /  -6.1 °C 29.62in /  1002.9hPa West 6.0mph /  9.7km/h 10.0mph /  16.1km/h 9% 0.00in /  0mm 181.0 W/m2
18:32 85.8 °F /  29.9 °C 20.5 °F /  -6.4 °C 29.63in /  1003.3hPa West 8.1mph /  13km/h 10.0mph /  16.1km/h 9% 0.00in /  0mm 114.0 W/m2
18:37 85.3 °F /  29.6 °C 22.6 °F /  -5.2 °C 29.63in /  1003.3hPa SW 4.9mph /  7.9km/h 9.0mph /  14.5km/h 10% 0.00in /  0mm 35.0 W/m2
18:42 84.7 °F /  29.3 °C 22.1 °F /  -5.5 °C 29.63in /  1003.3hPa WSW 6.9mph /  11.1km/h 8.0mph /  12.9km/h 10% 0.00in /  0mm 32.0 W/m2
18:47 84.4 °F /  29.1 °C 24.1 °F /  -4.4 °C 29.64in /  1003.6hPa West 4.9mph /  7.9km/h 8.0mph /  12.9km/h 11% 0.00in /  0mm 30.0 W/m2
18:52 83.7 °F /  28.7 °C 25.7 °F /  -3.5 °C 29.64in /  1003.6hPa WSW 4.0mph /  6.4km/h 10.0mph /  16.1km/h 12% 0.00in /  0mm 26.0 W/m2
18:58 82.9 °F /  28.3 °C 25.2 °F /  -3.8 °C 29.64in /  1003.6hPa West 4.9mph /  7.9km/h 12.0mph /  19.3km/h 12% 0.00in /  0mm 23.0 W/m2
19:03 82.6 °F /  28.1 °C 24.8 °F /  -4 °C 29.64in /  1003.6hPa WSW 2.0mph /  3.2km/h 8.0mph /  12.9km/h 12% 0.00in /  0mm 19.0 W/m2
19:13 81.9 °F /  27.7 °C 26.2 °F /  -3.2 °C 29.65in /  1003.9hPa NW 8.9mph /  14.3km/h 12.0mph /  19.3km/h 13% 0.00in /  0mm 14.0 W/m2
19:18 81.1 °F /  27.3 °C 25.7 °F /  -3.5 °C 29.65in /  1003.9hPa WSW 2.9mph /  4.7km/h 10.0mph /  16.1km/h 13% 0.00in /  0mm 11.0 W/m2
19:23 81.0 °F /  27.2 °C 25.5 °F /  -3.6 °C 29.66in /  1004.3hPa SW 0.9mph /  1.4km/h 8.0mph /  12.9km/h 13% 0.00in /  0mm 9.0 W/m2
19:28 80.4 °F /  26.9 °C 26.8 °F /  -2.9 °C 29.66in /  1004.3hPa West 6.9mph /  11.1km/h 8.0mph /  12.9km/h 14% 0.00in /  0mm 5.0 W/m2
19:33 80.1 °F /  26.7 °C 26.6 °F /  -3 °C 29.66in /  1004.3hPa SW 2.9mph /  4.7km/h 8.0mph /  12.9km/h 14% 0.00in /  0mm 0.0 W/m2
19:38 79.9 °F /  26.6 °C 26.4 °F /  -3.1 °C 29.67in /  1004.6hPa SW 6.0mph /  9.7km/h 11.0mph /  17.7km/h 14% 0.00in /  0mm 0.0 W/m2
19:44 79.3 °F /  26.3 °C 26.1 °F /  -3.3 °C 29.67in /  1004.6hPa West 6.0mph /  9.7km/h 10.0mph /  16.1km/h 14% 0.00in /  0mm 0.0 W/m2
19:49 79.0 °F /  26.1 °C 27.3 °F /  -2.6 °C 29.67in /  1004.6hPa Calm   6.0mph /  9.7km/h 15% 0.00in /  0mm 0.0 W/m2
19:54 78.6 °F /  25.9 °C 27.1 °F /  -2.7 °C 29.67in /  1004.6hPa SW 4.9mph /  7.9km/h 5.0mph /  8km/h 15% 0.00in /  0mm 0.0 W/m2
19:59 78.3 °F /  25.7 °C 26.8 °F /  -2.9 °C 29.67in /  1004.6hPa SW 2.9mph /  4.7km/h 8.0mph /  12.9km/h 15% 0.00in /  0mm 0.0 W/m2
20:04 78.1 °F /  25.6 °C 26.6 °F /  -3 °C 29.68in /  1005hPa Calm   5.0mph /  8km/h 15% 0.00in /  0mm 0.0 W/m2
20:09 77.7 °F /  25.4 °C 26.4 °F /  -3.1 °C 29.68in /  1005hPa SW 2.0mph /  3.2km/h 7.0mph /  11.3km/h 15% 0.00in /  0mm 0.0 W/m2
20:14 77.5 °F /  25.3 °C 26.2 °F /  -3.2 °C 29.68in /  1005hPa West 2.0mph /  3.2km/h 4.0mph /  6.4km/h 15% 0.00in /  0mm 0.0 W/m2
20:19 77.4 °F /  25.2 °C 26.1 °F /  -3.3 °C 29.69in /  1005.3hPa WSW 0.9mph /  1.4km/h 2.0mph /  3.2km/h 15% 0.00in /  0mm 0.0 W/m2
20:24 77.2 °F /  25.1 °C 25.9 °F /  -3.4 °C 29.69in /  1005.3hPa SW 0.9mph /  1.4km/h 2.0mph /  3.2km/h 15% 0.00in /  0mm 0.0 W/m2
20:29 77.0 °F /  25 °C 25.9 °F /  -3.4 °C 29.69in /  1005.3hPa SW 0.9mph /  1.4km/h 4.0mph /  6.4km/h 15% 0.00in /  0mm 0.0 W/m2
20:34 76.8 °F /  24.9 °C 27.1 °F /  -2.7 °C 29.69in /  1005.3hPa SSW 4.0mph /  6.4km/h 6.0mph /  9.7km/h 16% 0.00in /  0mm 0.0 W/m2
20:40 76.5 °F /  24.7 °C 27.0 °F /  -2.8 °C 29.69in /  1005.3hPa SSW 0.9mph /  1.4km/h 4.0mph /  6.4km/h 16% 0.00in /  0mm 0.0 W/m2
20:45 76.3 °F /  24.6 °C 28.2 °F /  -2.1 °C 29.70in /  1005.6hPa SE 0.9mph /  1.4km/h 3.0mph /  4.8km/h 17% 0.00in /  0mm 0.0 W/m2
20:50 76.1 °F /  24.5 °C 28.0 °F /  -2.2 °C 29.70in /  1005.6hPa Calm   1.0mph /  1.6km/h 17% 0.00in /  0mm 0.0 W/m2
20:55 75.7 °F /  24.3 °C 29.3 °F /  -1.5 °C 29.70in /  1005.6hPa Calm   3.0mph /  4.8km/h 18% 0.00in /  0mm 0.0 W/m2
21:00 75.6 °F /  24.2 °C 29.1 °F /  -1.6 °C 29.70in /  1005.6hPa SW 0.9mph /  1.4km/h 6.0mph /  9.7km/h 18% 0.00in /  0mm 0.0 W/m2
21:05 75.4 °F /  24.1 °C 28.9 °F /  -1.7 °C 29.70in /  1005.6hPa Calm   1.0mph /  1.6km/h 18% 0.00in /  0mm 0.0 W/m2
21:10 75.0 °F /  23.9 °C 30.0 °F /  -1.1 °C 29.70in /  1005.6hPa Calm     19% 0.00in /  0mm 0.0 W/m2
21:15 74.8 °F /  23.8 °C 29.8 °F /  -1.2 °C 29.70in /  1005.6hPa Calm   1.0mph /  1.6km/h 19% 0.00in /  0mm 0.0 W/m2
21:21 74.7 °F /  23.7 °C 30.9 °F /  -0.6 °C 29.70in /  1005.6hPa SE 0.9mph /  1.4km/h 1.0mph /  1.6km/h 20% 0.00in /  0mm 0.0 W/m2
21:26 74.5 °F /  23.6 °C 32.0 °F /  0 °C 29.70in /  1005.6hPa Calm   1.0mph /  1.6km/h 21% 0.00in /  0mm 0.0 W/m2
21:31 74.1 °F /  23.4 °C 31.6 °F /  -0.2 °C 29.70in /  1005.6hPa ESE 2.0mph /  3.2km/h 2.0mph /  3.2km/h 21% 0.00in /  0mm 0.0 W/m2
21:36 73.9 °F /  23.3 °C 31.5 °F /  -0.3 °C 29.70in /  1005.6hPa Calm   1.0mph /  1.6km/h 21% 0.00in /  0mm 0.0 W/m2
21:41 73.8 °F /  23.2 °C 31.5 °F /  -0.3 °C 29.71in /  1006hPa Calm   1.0mph /  1.6km/h 21% 0.00in /  0mm 0.0 W/m2
21:46 73.6 °F /  23.1 °C 32.4 °F /  0.2 °C 29.71in /  1006hPa Calm   1.0mph /  1.6km/h 22% 0.00in /  0mm 0.0 W/m2
21:51 73.2 °F /  22.9 °C 30.9 °F /  -0.6 °C 29.71in /  1006hPa Calm     21% 0.00in /  0mm 0.0 W/m2
21:56 73.0 °F /  22.8 °C 32.0 °F /  0 °C 29.71in /  1006hPa Calm   1.0mph /  1.6km/h 22% 0.00in /  0mm 0.0 W/m2
22:01 72.9 °F /  22.7 °C 31.8 °F /  -0.1 °C 29.71in /  1006hPa Calm     22% 0.00in /  0mm 0.0 W/m2
22:07 72.7 °F /  22.6 °C 31.6 °F /  -0.2 °C 29.71in /  1006hPa Calm   1.0mph /  1.6km/h 22% 0.00in /  0mm 0.0 W/m2
22:12 72.3 °F /  22.4 °C 32.4 °F /  0.2 °C 29.71in /  1006hPa Calm   1.0mph /  1.6km/h 23% 0.00in /  0mm 0.0 W/m2
22:17 72.1 °F /  22.3 °C 30.0 °F /  -1.1 °C 29.71in /  1006hPa Calm   2.0mph /  3.2km/h 21% 0.00in /  0mm 0.0 W/m2
22:22 72.1 °F /  22.3 °C 30.0 °F /  -1.1 °C 29.71in /  1006hPa WSW 2.0mph /  3.2km/h 2.0mph /  3.2km/h 21% 0.00in /  0mm 0.0 W/m2
22:27 72.1 °F /  22.3 °C 30.0 °F /  -1.1 °C 29.72in /  1006.3hPa WNW 0.9mph /  1.4km/h 1.0mph /  1.6km/h 21% 0.00in /  0mm 0.0 W/m2
22:32 72.1 °F /  22.3 °C 28.8 °F /  -1.8 °C 29.72in /  1006.3hPa Calm     20% 0.00in /  0mm 0.0 W/m2
22:37 72.0 °F /  22.2 °C 28.8 °F /  -1.8 °C 29.72in /  1006.3hPa WSW 0.9mph /  1.4km/h 1.0mph /  1.6km/h 20% 0.00in /  0mm 0.0 W/m2
22:42 71.8 °F /  22.1 °C 28.6 °F /  -1.9 °C 29.72in /  1006.3hPa Calm   1.0mph /  1.6km/h 20% 0.00in /  0mm 0.0 W/m2
22:48 71.6 °F /  22 °C 29.7 °F /  -1.3 °C 29.72in /  1006.3hPa Calm   2.0mph /  3.2km/h 21% 0.00in /  0mm 0.0 W/m2
22:53 71.4 °F /  21.9 °C 29.5 °F /  -1.4 °C 29.73in /  1006.7hPa Calm   1.0mph /  1.6km/h 21% 0.00in /  0mm 0.0 W/m2
22:59 71.1 °F /  21.7 °C 29.1 °F /  -1.6 °C 29.72in /  1006.3hPa Calm   1.0mph /  1.6km/h 21% 0.00in /  0mm 0.0 W/m2
23:04 70.5 °F /  21.4 °C 28.8 °F /  -1.8 °C 29.72in /  1006.3hPa Calm   1.0mph /  1.6km/h 21% 0.00in /  0mm 0.0 W/m2
23:09 70.3 °F /  21.3 °C 28.6 °F /  -1.9 °C 29.72in /  1006.3hPa Calm   1.0mph /  1.6km/h 21% 0.00in /  0mm 0.0 W/m2
23:14 70.0 °F /  21.1 °C 28.2 °F /  -2.1 °C 29.73in /  1006.7hPa Calm   2.0mph /  3.2km/h 21% 0.00in /  0mm 0.0 W/m2
23:19 69.6 °F /  20.9 °C 29.1 °F /  -1.6 °C 29.73in /  1006.7hPa Calm   1.0mph /  1.6km/h 22% 0.00in /  0mm 0.0 W/m2
23:25 69.3 °F /  20.7 °C 29.8 °F /  -1.2 °C 29.73in /  1006.7hPa Calm   1.0mph /  1.6km/h 23% 0.00in /  0mm 0.0 W/m2
23:31 68.9 °F /  20.5 °C 29.7 °F /  -1.3 °C 29.73in /  1006.7hPa Calm   1.0mph /  1.6km/h 23% 0.00in /  0mm 0.0 W/m2
23:36 68.5 °F /  20.3 °C 29.3 °F /  -1.5 °C 29.73in /  1006.7hPa ENE 0.9mph /  1.4km/h 1.0mph /  1.6km/h 23% 0.00in /  0mm 0.0 W/m2
23:42 68.4 °F /  20.2 °C 30.2 °F /  -1 °C 29.73in /  1006.7hPa Calm     24% 0.00in /  0mm 0.0 W/m2
23:47 68.0 °F /  20 °C 29.8 °F /  -1.2 °C 29.73in /  1006.7hPa Calm   1.0mph /  1.6km/h 24% 0.00in /  0mm 0.0 W/m2
23:52 67.6 °F /  19.8 °C 30.6 °F /  -0.8 °C 29.72in /  1006.3hPa Calm   2.0mph /  3.2km/h 25% 0.00in /  0mm 0.0 W/m2
23:57 67.3 °F /  19.6 °C 30.2 °F /  -1 °C 29.73in /  1006.7hPa Calm     25% 0.00in /  0mm 0.0 W/m2
Olympia, Windhoek, Namibia
Compliments of Weather Underground - 3.25 mb